createdAt,value
2018-05-21T00:03:34.825Z,11.33
2018-05-21T00:06:23.365Z,10.90
2018-05-21T00:12:21.986Z,10.20
2018-05-21T00:18:02.724Z,8.87
2018-05-21T00:20:51.601Z,8.87
2018-05-21T00:23:40.583Z,9.03
2018-05-21T00:26:29.285Z,7.63
2018-05-21T00:29:15.543Z,8.60
2018-05-21T00:32:01.966Z,8.83
2018-05-21T00:34:49.817Z,7.90
2018-05-21T00:40:30.124Z,7.37
2018-05-21T00:43:19.205Z,7.30
2018-05-21T00:46:05.903Z,7.20
2018-05-21T00:48:57.330Z,7.07
2018-05-21T00:51:46.152Z,7.40
2018-05-21T00:54:35.171Z,6.03
2018-05-21T01:00:14.861Z,6.50
2018-05-21T01:02:45.160Z,6.67
2018-05-21T01:05:16.144Z,6.43
2018-05-21T01:10:56.552Z,5.97
2018-05-21T01:13:45.031Z,6.47
2018-05-21T01:22:42.881Z,6.27
2018-05-21T01:25:12.718Z,6.23
2018-05-21T01:31:09.139Z,6.90
2018-05-21T01:33:39.243Z,7.10
2018-05-21T01:36:25.942Z,6.17
2018-05-21T01:39:16.071Z,7.03
2018-05-21T01:42:02.096Z,6.83
2018-05-21T01:45:05.033Z,6.50
2018-05-21T01:47:53.660Z,6.90
2018-05-21T01:53:33.776Z,6.13
2018-05-21T01:56:20.127Z,6.70
2018-05-21T02:02:12.405Z,6.07
2018-05-21T02:04:58.454Z,6.93
2018-05-21T02:07:41.778Z,7.10
2018-05-21T02:10:30.615Z,6.33
2018-05-21T02:16:25.553Z,6.23
2018-05-21T02:19:11.668Z,6.17
2018-05-21T02:21:57.812Z,6.07
2018-05-21T02:24:46.005Z,6.20
2018-05-21T02:33:39.423Z,6.73
2018-05-21T02:42:45.484Z,7.53
2018-05-21T02:48:42.010Z,7.67
2018-05-21T02:51:26.475Z,7.67
2018-05-21T02:54:16.351Z,8.13
2018-05-21T02:57:03.047Z,7.70
2018-05-21T02:59:49.272Z,7.60
2018-05-21T03:02:31.733Z,7.60
2018-05-21T03:08:29.561Z,7.50
2018-05-21T03:11:22.495Z,6.73
2018-05-21T03:14:09.210Z,7.10
2018-05-21T03:16:57.572Z,7.23
2018-05-21T03:22:56.438Z,7.27
2018-05-21T03:25:26.577Z,6.63
2018-05-21T03:28:25.239Z,7.50
2018-05-21T03:37:34.491Z,6.60
2018-05-21T03:40:21.114Z,6.93
2018-05-21T03:43:04.025Z,6.97
2018-05-21T03:45:53.022Z,7.27
2018-05-21T03:48:41.561Z,6.23
2018-05-21T03:54:21.772Z,7.03
2018-05-21T03:57:05.237Z,7.37
2018-05-21T03:59:53.269Z,6.93
2018-05-21T04:05:56.335Z,7.03
2018-05-21T04:14:45.018Z,7.13
2018-05-21T04:20:53.216Z,6.70
2018-05-21T04:23:41.684Z,6.67
2018-05-21T04:26:30.733Z,6.30
2018-05-21T04:29:25.596Z,6.40
2018-05-21T04:35:21.919Z,6.60
2018-05-21T04:38:17.217Z,6.90
2018-05-21T04:41:05.503Z,7.17
2018-05-21T04:43:54.286Z,7.00
2018-05-21T04:46:43.600Z,7.00
2018-05-21T04:49:33.179Z,7.30
2018-05-21T05:01:48.707Z,6.70
2018-05-21T05:04:43.715Z,6.67
2018-05-21T06:39:12.473Z,5.57
2018-05-21T06:41:43.388Z,5.82
2018-05-21T06:44:14.760Z,5.90
2018-05-21T06:46:46.238Z,5.75
2018-05-21T06:49:16.812Z,5.90
2018-05-21T06:51:47.320Z,5.32
2018-05-21T06:54:18.928Z,5.40
2018-05-21T06:56:49.778Z,5.82
2018-05-21T06:59:20.615Z,5.85
2018-05-21T07:01:51.267Z,5.68
2018-05-21T07:04:22.119Z,6.10
2018-05-21T07:06:52.765Z,5.50
2018-05-21T07:09:23.251Z,5.72
2018-05-21T07:11:54.131Z,5.50
2018-05-21T07:14:24.755Z,5.57
2018-05-21T07:16:55.615Z,5.30
2018-05-21T07:19:26.179Z,5.90
2018-05-21T07:21:56.839Z,5.20
2018-05-21T07:24:27.823Z,6.10
2018-05-21T07:26:58.312Z,6.03
2018-05-21T07:29:28.842Z,6.50
2018-05-21T07:31:59.514Z,5.90
2018-05-21T07:34:29.866Z,5.27
2018-05-21T07:37:00.230Z,6.03
2018-05-21T07:39:30.617Z,5.80
2018-05-21T07:42:01.450Z,6.25
2018-05-21T07:44:32.287Z,6.00
2018-05-21T07:47:03.127Z,6.35
2018-05-21T07:49:33.759Z,6.32
2018-05-21T07:52:04.269Z,6.37
2018-05-21T07:54:35.133Z,5.72
2018-05-21T07:57:05.483Z,6.37
2018-05-21T07:59:36.582Z,6.40
2018-05-21T08:02:06.806Z,6.43
2018-05-21T08:04:37.924Z,6.07
2018-05-21T08:07:08.269Z,5.80
2018-05-21T08:09:38.839Z,6.20
2018-05-21T08:12:10.517Z,5.68
2018-05-21T08:14:40.972Z,5.57
2018-05-21T08:17:12.430Z,6.03
2018-05-21T08:19:43.281Z,5.53
2018-05-21T08:22:14.641Z,6.23
2018-05-21T08:24:45.422Z,6.10
2018-05-21T08:27:16.263Z,6.28
2018-05-21T08:29:46.874Z,5.73
2018-05-21T08:32:17.449Z,6.27
2018-05-21T08:34:48.108Z,5.32
2018-05-21T08:37:18.775Z,5.47
2018-05-21T08:39:49.864Z,5.60
2018-05-21T08:42:20.716Z,5.90
2018-05-21T08:44:51.485Z,5.87
2018-05-21T08:47:23.087Z,5.50
2018-05-21T08:49:53.919Z,5.55
2018-05-21T08:52:25.342Z,5.55
2018-05-21T08:54:56.158Z,4.95
2018-05-21T08:57:26.817Z,5.68
2018-05-21T08:59:57.662Z,5.53
2018-05-21T09:02:29.409Z,5.20
2018-05-21T09:05:00.073Z,4.95
2018-05-21T09:07:30.737Z,5.03
2018-05-21T09:10:01.415Z,5.00
2018-05-21T09:12:32.297Z,5.28
2018-05-21T09:15:03.091Z,5.20
2018-05-21T09:17:33.732Z,5.30
2018-05-21T09:20:04.342Z,5.25
2018-05-21T09:22:35.096Z,5.10
2018-05-21T09:25:06.888Z,5.37
2018-05-21T09:27:37.550Z,5.35
2018-05-21T09:30:08.095Z,5.32
2018-05-21T09:37:42.775Z,5.03
2018-05-21T09:40:13.105Z,5.80
2018-05-21T09:42:43.728Z,4.87
2018-05-21T09:45:14.584Z,5.70
2018-05-21T09:47:45.223Z,4.87
2018-05-21T09:50:16.149Z,5.32
2018-05-21T09:52:47.755Z,5.07
2018-05-21T09:55:18.395Z,5.15
2018-05-21T09:57:49.051Z,5.20
2018-05-21T10:00:24.423Z,4.80
2018-05-21T10:02:55.270Z,4.60
2018-05-21T10:05:26.705Z,4.32
2018-05-21T10:07:57.340Z,4.80
2018-05-21T10:10:28.006Z,5.00
2018-05-21T10:12:58.658Z,4.62
2018-05-21T10:15:28.486Z,4.32
2018-05-21T10:17:59.351Z,4.90
2018-05-21T10:20:29.977Z,5.05
2018-05-21T10:23:00.640Z,4.55
2018-05-21T10:25:31.271Z,4.70
2018-05-21T10:28:02.884Z,4.93
2018-05-21T10:30:34.321Z,5.10
2018-05-21T10:33:04.960Z,4.87
2018-05-21T10:35:35.846Z,5.12
2018-05-21T10:38:23.447Z,5.07
2018-05-21T10:40:53.836Z,5.18
2018-05-21T10:43:28.917Z,4.95
2018-05-21T20:32:20.352Z,5.40
2018-05-21T20:35:07.774Z,4.40
2018-05-21T20:37:55.950Z,2.57
2018-05-21T20:40:26.045Z,3.63
2018-05-21T20:42:57.459Z,3.93
2018-05-21T20:45:45.557Z,3.80
2018-05-21T20:54:37.028Z,3.00
2018-05-21T20:57:07.176Z,3.10
2018-05-21T21:03:07.039Z,2.70
2018-05-21T21:05:55.665Z,2.80
2018-05-21T21:11:52.647Z,1.97
2018-05-21T21:14:40.953Z,2.50
2018-05-21T21:17:29.325Z,2.23
2018-05-21T21:23:29.111Z,2.60
2018-05-21T21:26:20.328Z,2.50
2018-05-21T21:32:01.614Z,2.47
2018-05-21T21:34:54.587Z,2.27
2018-05-21T21:37:36.605Z,2.37
2018-05-21T21:46:20.014Z,2.73
2018-05-21T21:48:53.841Z,2.50
2018-05-21T21:51:28.398Z,2.70
2018-05-21T21:54:01.710Z,2.80
2018-05-21T21:56:32.261Z,2.33
2018-05-21T21:59:04.905Z,2.20
2018-05-21T22:01:35.786Z,1.93
2018-05-21T22:04:09.512Z,2.40
2018-05-21T22:06:40.342Z,2.30
2018-05-21T22:09:11.448Z,2.60
2018-05-21T22:11:44.465Z,2.57
2018-05-21T22:14:17.460Z,3.03
2018-05-21T22:16:55.355Z,3.13
2018-05-21T22:19:30.840Z,2.40
2018-05-21T22:22:03.442Z,2.97
2018-05-21T22:24:34.673Z,2.90
2018-05-21T22:27:09.282Z,2.93
2018-05-21T22:29:41.607Z,2.40
2018-05-21T22:32:13.179Z,1.93
2018-05-21T22:34:45.355Z,2.50
2018-05-21T22:37:15.475Z,1.60
2018-05-21T22:39:50.647Z,2.00
2018-05-21T22:42:23.709Z,1.80
2018-05-21T22:44:54.683Z,2.63
2018-05-21T22:47:26.086Z,2.43
2018-05-21T22:49:57.493Z,2.30
2018-05-21T22:52:31.101Z,1.93
2018-05-21T22:55:02.188Z,2.57
2018-05-21T22:57:34.822Z,2.60
2018-05-21T23:00:09.738Z,2.30
2018-05-21T23:02:41.139Z,1.90
2018-05-21T23:05:13.948Z,2.30
2018-05-21T23:07:44.321Z,2.00
2018-05-21T23:10:19.458Z,2.07
2018-05-21T23:12:49.849Z,1.83
2018-05-21T23:15:22.446Z,1.47
2018-05-21T23:17:53.258Z,1.70
2018-05-21T23:20:27.212Z,1.57
2018-05-21T23:23:00.474Z,2.00
2018-05-21T23:25:31.447Z,1.97
2018-05-21T23:28:02.931Z,1.90
2018-05-21T23:30:35.147Z,1.70
2018-05-21T23:33:06.117Z,2.07
2018-05-21T23:35:36.635Z,1.70
2018-05-21T23:38:11.212Z,1.97
2018-05-21T23:40:43.875Z,1.67
2018-05-21T23:43:14.320Z,1.90
2018-05-21T23:45:45.840Z,1.83
2018-05-21T23:48:19.577Z,1.90
2018-05-21T23:50:49.772Z,1.97
2018-05-21T23:53:20.011Z,1.50
2018-05-21T23:55:50.293Z,1.63
2018-05-21T23:58:20.504Z,1.63
